Trinity, North Carolina
Current Conditions -  °F | °C
As of 3:54 PM on Friday 19 Dec 2014 (Local Time) from KGSO Reporting Station
Broken Clouds Broken Clouds  
Wind Chill: 11°   Ceiling: 25000
Heat Index: 11°   Visibility: 10mi
Dew Point: -6°   Wind: 7mph
Humidity: 32%   Direction: 320°NW
Pressure: 30.1"   Gusts: NA
Location:  35.89°N, 79.99°W
Report Text: KGSO 192054Z 32006KT 10SM BKN250 11/M06 A3010 RMK AO2 SLP193 T01061056 57001
Loading
Personal Weather Stations






























Interactive Weather Map New forecast layout! Learn more

10-Day Weather Forecast

Advertisements
Track Severe Weather on mobile